Time;durP1;ratioP1;P1;durP2;ratioP2;P2;SDS_P1;SDS_P2;PMS_P1;PMS_P2;Temp;Humidity;BMP_temperature;BMP_pressure;BME280_temperature;BME280_humidity;BME280_pressure;Samples;Min_cycle;Max_cycle;Signal;HPM_P1;HPM_P2
2022/04/18 00:00:50;;;;;;;80.97;44.58;;;;;;;5.13;57.06;100852.59;2078270;85;27988;-68
2022/04/18 00:03:55;;;;;;;84.52;45.08;;;;;;;5.12;57.02;100850.83;2059027;85;28746;-68
2022/04/18 00:07:04;;;;;;;84.65;44.42;;;;;;;5.08;56.82;100843.81;2079067;85;31003;-68
2022/04/18 00:10:12;;;;;;;86.63;43.00;;;;;;;5.04;56.81;100840.78;2078921;85;32991;-68
2022/04/18 00:13:19;;;;;;;87.25;44.48;;;;;;;4.97;56.75;100838.22;2078950;85;29302;-68
2022/04/18 00:16:31;;;;;;;82.08;42.53;;;;;;;4.90;56.82;100827.30;2079038;85;27950;-68
2022/04/18 00:19:38;;;;;;;84.87;43.02;;;;;;;4.79;56.82;100820.85;2079022;84;28647;-68
2022/04/18 00:22:44;;;;;;;90.72;42.93;;;;;;;4.68;56.83;100821.49;2078690;85;31071;-68
2022/04/18 00:25:49;;;;;;;86.82;43.98;;;;;;;4.56;56.92;100823.43;2078812;85;33121;-67
2022/04/18 00:28:55;;;;;;;85.30;44.63;;;;;;;4.47;57.04;100818.28;2079958;84;29334;-68
2022/04/18 00:31:59;;;;;;;84.67;43.42;;;;;;;4.37;57.10;100817.55;2087028;83;27854;-68
2022/04/18 00:35:07;;;;;;;84.40;42.60;;;;;;;4.29;57.23;100814.59;2111538;83;28688;-67
2022/04/18 00:38:13;;;;;;;87.88;44.08;;;;;;;4.20;57.41;100807.65;2112143;83;31053;-67
2022/04/18 00:41:17;;;;;;;;;;;;;;;4.13;57.55;100804.68;2114629;83;32960;-67
2022/04/18 00:44:20;;;;;;;91.85;44.03;;;;;;;4.07;57.66;100805.19;2094301;84;29419;-69
2022/04/18 00:47:28;;;;;;;91.32;44.73;;;;;;;4.01;57.84;100805.73;2092143;84;28026;-69
2022/04/18 00:50:38;;;;;;;85.40;43.23;;;;;;;3.98;58.21;100796.02;2118038;83;28635;-69
2022/04/18 00:53:45;;;;;;;90.97;42.33;;;;;;;3.97;58.31;100792.08;2117670;83;31590;-69
2022/04/18 00:56:53;;;;;;;88.82;42.15;;;;;;;3.97;58.94;100790.76;2118044;83;32953;-68
2022/04/18 00:59:56;;;;;;;94.87;42.53;;;;;;;4.00;58.92;100786.28;2117619;83;29593;-68
2022/04/18 01:03:02;;;;;;;92.27;42.17;;;;;;;4.03;59.05;100780.08;2118454;83;27970;-68
2022/04/18 01:06:10;;;;;;;82.50;39.55;;;;;;;4.06;59.26;100775.59;2117895;83;28711;-68
2022/04/18 01:09:15;;;;;;;93.95;41.98;;;;;;;4.12;59.32;100780.39;2117278;83;30989;-68
2022/04/18 01:12:20;;;;;;;81.30;38.78;;;;;;;4.15;59.35;100776.34;2117650;83;32980;-68
2022/04/18 01:15:25;;;;;;;90.42;41.50;;;;;;;4.18;59.81;100769.67;2118209;83;29349;-67
2022/04/18 01:18:27;;;;;;;;;;;;;;;4.21;59.67;100768.30;2123704;83;27578;-68
2022/04/18 01:21:36;;;;;;;80.47;39.90;;;;;;;4.25;59.79;100764.24;2121035;83;28644;-68
2022/04/18 01:31:39;;;;;;;78.25;38.42;;;;;;;4.28;59.80;100767.75;2117537;83;28183;-68
2022/04/18 01:34:47;;;;;;;84.77;38.95;;;;;;;4.29;60.11;100754.91;2074496;85;28043;-68
2022/04/18 01:37:50;;;;;;;96.00;39.87;;;;;;;4.29;60.10;100755.81;2112021;83;28720;-67
2022/04/18 01:40:55;;;;;;;82.10;38.35;;;;;;;4.28;60.06;100757.14;2111969;83;31067;-68
2022/04/18 01:44:03;;;;;;;80.17;36.48;;;;;;;4.26;60.16;100752.73;2112080;84;32974;-68
2022/04/18 01:47:12;;;;;;;78.05;36.53;;;;;;;4.25;60.17;100752.31;2112159;84;29341;-67
2022/04/18 01:50:19;;;;;;;80.60;37.00;;;;;;;4.24;60.10;100750.55;2111863;84;27740;-68
2022/04/18 01:53:24;;;;;;;80.30;37.03;;;;;;;4.24;60.25;100750.55;2112328;83;28643;-67
2022/04/18 01:56:28;;;;;;;72.22;34.65;;;;;;;4.25;60.26;100746.14;2112427;83;31011;-68
2022/04/18 01:59:34;;;;;;;50.60;24.52;;;;;;;4.24;60.38;100745.25;2112127;84;33064;-67
2022/04/18 02:02:39;;;;;;;71.97;33.55;;;;;;;4.24;60.41;100739.95;2112418;84;29331;-68
2022/04/18 02:05:47;;;;;;;70.03;34.00;;;;;;;4.23;60.35;100732.03;2112625;84;27937;-68
2022/04/18 02:08:49;;;;;;;62.03;33.10;;;;;;;4.20;60.40;100737.38;2115261;84;28644;-67
2022/04/18 02:11:51;;;;;;;63.02;31.33;;;;;;;4.17;60.40;100731.69;2115193;83;30995;-68
2022/04/18 02:15:01;;;;;;;64.22;31.55;;;;;;;4.13;60.21;100723.34;2111686;83;29443;-67
2022/04/18 02:18:06;;;;;;;64.75;31.00;;;;;;;4.08;60.36;100725.19;2112349;84;29355;-68
2022/04/18 02:21:11;;;;;;;;;;;;;;;4.00;60.42;100719.14;2115054;84;27870;-68
2022/04/18 02:24:15;;;;;;;65.35;31.02;;;;;;;3.92;60.49;100716.61;2094457;84;28819;-67
2022/04/18 02:27:20;;;;;;;42.38;22.58;;;;;;;3.86;60.61;100718.02;2092843;84;31043;-67
2022/04/18 02:30:23;;;;;;;60.12;29.23;;;;;;;3.67;60.59;100683.84;2121381;83;32967;-68
2022/04/18 02:33:27;;;;;;;60.67;30.65;;;;;;;3.77;60.70;100710.66;2119470;83;29345;-69
2022/04/18 02:36:33;;;;;;;58.48;29.42;;;;;;;3.74;60.76;100706.72;2089662;85;28040;-67
2022/04/18 02:39:38;;;;;;;60.17;29.32;;;;;;;3.72;60.79;100700.55;2115592;83;28474;-68
2022/04/18 02:42:42;;;;;;;62.85;30.27;;;;;;;3.72;60.95;100693.08;2092793;85;31032;-67
2022/04/18 02:45:44;;;;;;;66.05;30.45;;;;;;;3.69;61.01;100688.67;2118098;83;33091;-67
2022/04/18 02:48:52;;;;;;;56.20;29.75;;;;;;;3.67;61.17;100689.14;2089741;85;29744;-67
2022/04/18 02:51:57;;;;;;;54.50;27.07;;;;;;;3.64;61.44;100686.09;2115497;83;27811;-68
2022/04/18 02:55:04;;;;;;;66.00;31.00;;;;;;;3.65;61.53;100682.55;2089999;84;28739;-68
2022/04/18 02:58:08;;;;;;;58.73;29.20;;;;;;;3.63;61.62;100671.56;2115432;83;31674;-67
2022/04/18 03:01:16;;;;;;;55.40;28.93;;;;;;;3.61;61.88;100686.14;2090135;84;32954;-68
2022/04/18 03:04:21;;;;;;;62.23;30.70;;;;;;;3.60;61.95;100688.83;2115406;83;29367;-68
2022/04/18 03:07:28;;;;;;;67.75;30.80;;;;;;;3.58;62.05;100677.37;2090091;84;27957;-68
2022/04/18 03:14:00;;;;;;;59.93;28.65;;;;;;;3.53;62.03;100676.55;2089548;84;32324;-68
2022/04/18 03:17:07;;;;;;;;;;;;;;;3.47;61.88;100672.22;2117976;83;33077;-68
2022/04/18 03:20:17;;;;;;;50.28;27.82;;;;;;;3.42;61.98;100675.38;2089452;85;29416;-69
2022/04/18 03:23:26;;;;;;;44.58;23.05;;;;;;;3.33;61.90;100674.63;2115535;83;27899;-67
2022/04/18 03:26:33;;;;;;;43.58;23.70;;;;;;;3.25;61.67;100675.62;2089911;84;28670;-69
2022/04/18 03:29:38;;;;;;;46.80;24.45;;;;;;;3.16;61.70;100673.50;2115550;83;31011;-68
2022/04/18 03:32:50;;;;;;;44.15;22.67;;;;;;;3.00;61.68;100665.33;2115504;83;32914;-68
2022/04/18 03:42:56;;;;;;;42.27;21.12;;;;;;;2.80;61.55;100662.94;2114932;84;28727;-67
2022/04/18 03:46:00;;;;;;;44.80;21.97;;;;;;;2.70;61.62;100667.02;2114542;83;31027;-67
2022/04/18 03:49:11;;;;;;;39.50;20.72;;;;;;;2.62;61.68;100666.68;2114335;83;33002;-67
2022/04/18 03:52:23;;;;;;;36.10;20.77;;;;;;;2.53;61.78;100665.87;2113581;83;30509;-67
2022/04/18 03:55:26;;;;;;;33.80;18.87;;;;;;;2.46;61.99;100664.63;2117307;83;27945;-68
2022/04/18 03:58:28;;;;;;;38.35;18.27;;;;;;;2.42;61.97;100662.47;2116843;84;28708;-67
2022/04/18 04:01:33;;;;;;;35.35;17.25;;;;;;;2.39;62.10;100662.50;2114466;83;31002;-67
2022/04/18 04:04:43;;;;;;;30.43;14.65;;;;;;;2.37;62.10;100668.23;2114252;83;35962;-67
2022/04/18 04:07:54;;;;;;;27.75;14.38;;;;;;;2.35;61.99;100669.59;2114963;83;27897;-67
2022/04/18 04:11:02;;;;;;;25.72;13.55;;;;;;;2.34;61.95;100669.58;2115105;84;27947;-67
2022/04/18 04:14:06;;;;;;;27.93;14.98;;;;;;;2.33;61.75;100674.02;2115352;83;28629;-67
2022/04/18 04:17:15;;;;;;;25.65;14.75;;;;;;;2.34;61.90;100676.20;2115395;83;31037;-67
2022/04/18 04:20:21;;;;;;;23.62;11.48;;;;;;;2.34;61.77;100669.58;2115277;83;32969;-67
2022/04/18 04:23:28;;;;;;;21.12;10.95;;;;;;;2.38;61.68;100672.64;2115345;83;29318;-67
2022/04/18 04:26:35;;;;;;;22.55;11.40;;;;;;;2.42;61.50;100678.34;2115414;83;27840;-68
2022/04/18 04:29:39;;;;;;;20.75;11.85;;;;;;;2.48;61.36;100676.07;2115299;83;28657;-67
2022/04/18 04:32:50;;;;;;;23.90;11.22;;;;;;;2.54;61.27;100674.70;2115344;83;31033;-67
2022/04/18 04:36:00;;;;;;;23.77;13.20;;;;;;;2.62;61.25;100677.26;2117805;83;33751;-67
2022/04/18 04:39:05;;;;;;;22.05;12.20;;;;;;;2.70;61.23;100673.64;2118170;83;29382;-67
2022/04/18 04:42:14;;;;;;;21.33;12.33;;;;;;;2.78;61.07;100670.01;2118256;83;27853;-67
2022/04/18 04:45:20;;;;;;;21.80;11.03;;;;;;;2.89;61.04;100665.48;2117829;83;29153;-66
2022/04/18 04:48:26;;;;;;;12.13;7.90;;;;;;;3.00;60.92;100664.91;2118217;83;31013;-66
2022/04/18 04:51:33;;;;;;;18.77;9.50;;;;;;;3.15;60.74;100666.92;2095575;83;32954;-67
2022/04/18 04:54:45;;;;;;;17.90;9.38;;;;;;;3.33;60.55;100668.44;2118138;83;29385;-67
2022/04/18 04:57:55;;;;;;;17.25;9.08;;;;;;;3.53;60.31;100658.01;2117859;83;27744;-67
2022/04/18 05:00:59;;;;;;;16.00;9.18;;;;;;;3.80;60.10;100664.67;2118157;83;28849;-67
2022/04/18 05:04:06;;;;;;;21.30;9.68;;;;;;;4.13;59.81;100662.36;2119074;83;31073;-67
2022/04/18 05:07:11;;;;;;;17.80;9.58;;;;;;;4.55;59.22;100669.58;2118036;83;32968;-67
2022/04/18 05:10:16;;;;;;;17.48;9.35;;;;;;;5.08;59.12;100663.23;2118138;83;29325;-68
2022/04/18 05:13:22;;;;;;;17.32;8.38;;;;;;;5.71;58.35;100665.80;2119027;83;27646;-67
2022/04/18 05:16:26;;;;;;;18.65;9.50;;;;;;;6.33;57.01;100656.34;2118089;83;28692;-69
2022/04/18 05:19:31;;;;;;;16.73;10.45;;;;;;;6.89;57.08;100649.48;2118330;83;31017;-68
2022/04/18 05:22:35;;;;;;;16.57;9.68;;;;;;;7.36;55.98;100662.32;2118284;83;32976;-68
2022/04/18 05:25:40;;;;;;;21.73;10.13;;;;;;;7.74;55.28;100658.92;2118180;83;29071;-67
2022/04/18 05:28:45;;;;;;;18.07;9.58;;;;;;;7.88;54.50;100657.13;2118479;83;27862;-68
2022/04/18 05:31:57;;;;;;;14.68;8.88;;;;;;;7.91;54.42;100657.51;2118182;83;28667;-68
2022/04/18 05:35:04;;;;;;;18.50;9.73;;;;;;;7.88;54.14;100652.27;2115845;83;31067;-67
2022/04/18 05:38:11;;;;;;;16.42;9.50;;;;;;;7.74;53.06;100654.03;2114995;83;33026;-69
2022/04/18 05:41:16;;;;;;;18.55;9.15;;;;;;;7.58;53.77;100654.53;2089572;85;29271;-68
2022/04/18 05:44:23;;;;;;;17.33;9.30;;;;;;;7.43;53.26;100663.89;2115575;84;27988;-68
2022/04/18 05:47:34;;;;;;;20.20;9.70;;;;;;;7.44;53.52;100669.64;2089155;84;29175;-70
2022/04/18 05:50:45;;;;;;;16.10;8.93;;;;;;;7.77;53.82;100669.09;2115099;84;30675;-69
2022/04/18 05:53:51;;;;;;;17.67;8.33;;;;;;;8.04;53.46;100661.51;2088812;84;33029;-69
2022/04/18 05:56:57;;;;;;;19.25;10.23;;;;;;;8.38;53.35;100659.95;2114798;83;27995;-69
2022/04/18 06:00:04;;;;;;;17.50;9.50;;;;;;;8.76;53.27;100657.28;2089618;85;27844;-68
2022/04/18 06:03:11;;;;;;;18.00;10.53;;;;;;;9.06;52.40;100656.21;2115011;84;28665;-70
2022/04/18 06:06:17;;;;;;;23.60;10.70;;;;;;;9.34;52.08;100660.49;2089368;85;31068;-70
2022/04/18 06:09:25;;;;;;;21.00;10.80;;;;;;;9.79;51.45;100661.41;2115105;84;32946;-70
2022/04/18 06:12:30;;;;;;;31.65;13.28;;;;;;;10.29;50.83;100652.19;2089549;84;29328;-70
2022/04/18 06:15:35;;;;;;;28.70;13.25;;;;;;;10.85;49.74;100646.64;2114949;84;28086;-69
2022/04/18 06:18:37;;;;;;;19.92;10.13;;;;;;;11.40;48.94;100651.28;2092748;85;28654;-71
2022/04/18 06:21:52;;;;;;;25.92;11.70;;;;;;;11.94;49.46;100654.48;2093864;84;27876;-71
2022/04/18 06:24:55;;;;;;;17.02;9.58;;;;;;;12.44;47.37;100652.91;2088002;84;33635;-72
2022/04/18 06:27:57;;;;;;;23.20;11.57;;;;;;;12.82;46.77;100655.87;2118125;84;29325;-72
2022/04/18 06:31:01;;;;;;;16.12;9.90;;;;;;;13.26;45.97;100644.10;2089387;85;27876;-71
2022/04/18 06:34:09;;;;;;;18.70;10.23;;;;;;;13.55;46.03;100649.24;2097362;83;28634;-72
2022/04/18 06:37:12;;;;;;;16.75;9.60;;;;;;;13.84;45.28;100650.73;2120275;83;31063;-72
2022/04/18 06:40:17;;;;;;;16.05;10.60;;;;;;;14.12;45.20;100653.19;2116603;83;33069;-70
2022/04/18 06:43:23;;;;;;;16.57;10.55;;;;;;;14.49;44.73;100645.58;2095309;83;29357;-70
2022/04/18 06:46:26;;;;;;;19.07;10.88;;;;;;;15.39;44.14;100636.00;2098313;83;27708;-73
2022/04/18 06:49:30;;;;;;;21.23;11.20;;;;;;;15.39;44.14;100636.00;2117683;83;28843;-72
2022/04/18 06:52:39;;;;;;;17.27;12.20;;;;;;;15.81;42.62;100642.75;2120906;83;31016;-71
2022/04/18 06:59:07;;;;;;;21.33;12.28;;;;;;;15.84;38.98;100641.20;2117891;83;30037;-71
2022/04/18 07:02:11;;;;;;;;;;;;;;;15.59;39.04;100644.65;2120763;83;27897;-72
2022/04/18 07:05:16;;;;;;;11.08;8.53;;;;;;;15.52;38.74;100641.48;2117733;83;28674;-70
2022/04/18 07:08:19;;;;;;;19.17;12.73;;;;;;;15.61;38.24;100638.67;2121132;83;31042;-73
2022/04/18 07:11:22;;;;;;;21.00;13.05;;;;;;;15.83;38.81;100638.11;2120956;83;32973;-73
2022/04/18 07:14:25;;;;;;;18.95;12.75;;;;;;;15.88;38.94;100638.72;2098704;83;29356;-72
2022/04/18 07:17:31;;;;;;;19.52;11.68;;;;;;;16.07;37.28;100636.98;2117940;83;27878;-72
2022/04/18 07:20:36;;;;;;;21.67;14.23;;;;;;;16.10;37.93;100634.08;2118362;83;28641;-70
2022/04/18 07:23:39;;;;;;;18.10;12.82;;;;;;;16.03;36.72;100634.60;2118184;83;31023;-69
2022/04/18 07:26:44;;;;;;;18.00;12.80;;;;;;;16.14;37.93;100632.03;2117919;83;32957;-69
2022/04/18 07:29:49;;;;;;;18.37;13.22;;;;;;;16.45;36.84;100633.13;2095694;83;29332;-68
2022/04/18 07:32:58;;;;;;;16.20;11.50;;;;;;;16.71;36.61;100630.81;2117875;83;27969;-71
2022/04/18 07:36:05;;;;;;;15.35;11.30;;;;;;;16.90;35.74;100631.34;2095658;83;28582;-69
2022/04/18 07:39:11;;;;;;;15.30;11.25;;;;;;;17.04;36.13;100634.45;2121034;83;31226;-72
2022/04/18 07:42:19;;;;;;;13.35;10.20;;;;;;;17.29;36.62;100630.84;2117440;83;33180;-69
2022/04/18 07:45:25;;;;;;;14.47;9.75;;;;;;;17.60;35.98;100622.70;2117878;83;29988;-70
2022/04/18 07:48:33;;;;;;;13.40;9.05;;;;;;;17.59;34.67;100621.44;2117962;83;27930;-70
2022/04/18 07:51:40;;;;;;;13.68;8.30;;;;;;;17.76;34.63;100621.05;2121033;83;28594;-70
2022/04/18 07:54:45;;;;;;;12.65;9.23;;;;;;;17.84;32.72;100623.17;2117943;83;31020;-68
2022/04/18 07:57:55;;;;;;;12.70;8.88;;;;;;;17.91;33.09;100626.28;2118231;83;37543;-69
2022/04/18 08:01:00;;;;;;;13.98;8.68;;;;;;;17.89;33.60;100629.12;2117661;83;29517;-69
2022/04/18 08:04:06;;;;;;;14.10;8.73;;;;;;;17.77;32.92;100622.78;2118195;83;27913;-70
2022/04/18 08:07:16;;;;;;;11.57;7.80;;;;;;;17.77;33.92;100617.86;2107647;83;28626;-70
2022/04/18 08:10:23;;;;;;;13.30;7.95;;;;;;;17.86;33.34;100622.58;2117952;83;31195;-71
2022/04/18 08:13:29;;;;;;;8.05;6.25;;;;;;;17.90;32.79;100617.78;2118477;83;33102;-69
2022/04/18 08:16:37;;;;;;;12.85;7.60;;;;;;;17.88;32.33;100619.73;2118091;83;29315;-69
2022/04/18 08:19:42;;;;;;;9.05;7.03;;;;;;;17.98;32.24;100616.75;2117975;83;27856;-70
2022/04/18 08:22:46;;;;;;;9.90;6.37;;;;;;;18.04;32.28;100609.48;2118158;83;28664;-70
2022/04/18 08:25:50;;;;;;;10.18;6.80;;;;;;;18.11;30.34;100612.63;2118022;83;31025;-69
2022/04/18 08:28:54;;;;;;;7.93;5.70;;;;;;;17.99;31.92;100611.71;2117208;83;33725;-72
2022/04/18 08:31:59;;;;;;;7.33;5.40;;;;;;;18.09;31.93;100606.45;2118113;83;29302;-72
2022/04/18 08:35:07;;;;;;;10.55;6.17;;;;;;;17.92;29.95;100617.17;2094675;83;27928;-70
2022/04/18 08:38:15;;;;;;;7.78;5.92;;;;;;;17.59;30.92;100616.02;2089015;84;28698;-68
2022/04/18 08:41:23;;;;;;;11.40;8.05;;;;;;;17.48;31.31;100610.03;2114845;83;31050;-68
2022/04/18 08:44:31;;;;;;;9.55;6.37;;;;;;;17.28;30.79;100606.09;2089582;84;33033;-67
2022/04/18 08:54:33;;;;;;;11.22;6.92;;;;;;;16.39;31.31;100604.18;2114216;84;28693;-69
2022/04/18 08:57:39;;;;;;;9.68;7.05;;;;;;;16.04;31.43;100597.15;2089711;85;31047;-68
2022/04/18 09:00:45;;;;;;;10.65;8.40;;;;;;;15.83;31.58;100604.34;2095227;83;32967;-69
2022/04/18 09:03:50;;;;;;;9.25;5.87;;;;;;;15.69;31.41;100594.95;2089568;85;29314;-68
2022/04/18 09:06:58;;;;;;;8.05;5.60;;;;;;;15.65;32.18;100592.91;2115234;83;27902;-68
2022/04/18 09:10:09;;;;;;;8.68;5.40;;;;;;;15.78;32.08;100588.91;2115085;83;28603;-68
2022/04/18 09:13:14;;;;;;;8.63;5.83;;;;;;;15.82;32.21;100587.75;2118044;83;31057;-68
2022/04/18 09:16:20;;;;;;;8.25;5.62;;;;;;;15.93;31.62;100585.72;2117951;83;33684;-67
2022/04/18 09:19:27;;;;;;;7.45;5.75;;;;;;;15.93;31.96;100577.11;2118264;83;29326;-68
2022/04/18 09:22:37;;;;;;;8.73;5.28;;;;;;;15.99;31.63;100570.91;2115407;83;27372;-59
2022/04/18 09:25:46;;;;;;;4.00;2.35;;;;;;;16.00;30.18;100568.59;2114519;83;28672;-60
2022/04/18 09:28:52;;;;;;;4.85;3.10;;;;;;;15.93;28.68;100564.09;2113369;83;31103;-61
2022/04/18 09:31:59;;;;;;;3.72;2.47;;;;;;;15.82;29.23;100567.95;2093955;83;32983;-61
2022/04/18 09:35:09;;;;;;;2.50;2.15;;;;;;;15.74;29.61;100568.01;2095037;83;29481;-61
2022/04/18 09:38:19;;;;;;;4.72;2.80;;;;;;;15.80;29.33;100556.77;2117508;83;27882;-61
2022/04/18 09:41:33;;;;;;;4.40;3.20;;;;;;;15.84;29.55;100556.09;2116825;83;27965;-61
2022/04/18 09:44:43;;;;;;;6.28;4.30;;;;;;;15.88;29.52;100551.38;2117331;83;31030;-59
2022/04/18 09:48:01;;;;;;;6.75;3.47;;;;;;;15.98;29.27;100563.27;2117401;83;33067;-60
2022/04/18 09:51:26;;;;;;;5.40;3.50;;;;;;;15.16;27.90;100529.03;2117225;83;29374;-64
2022/04/18 09:54:32;;;;;;;8.28;4.03;;;;;;;15.16;27.90;100529.03;2117484;83;27703;-61
2022/04/18 09:57:41;;;;;;;6.78;3.98;;;;;;;14.75;28.93;100533.94;2117337;83;28764;-60
2022/04/18 10:00:47;;;;;;;6.00;3.80;;;;;;;14.75;28.93;100533.94;2106764;83;28031;-60
2022/04/18 10:03:52;;;;;;;7.40;4.20;;;;;;;14.67;29.20;100540.25;2117327;83;34066;-60
2022/04/18 10:06:59;;;;;;;6.10;3.70;;;;;;;14.64;29.57;100537.27;2117526;83;29325;-60
2022/04/18 10:10:04;;;;;;;4.97;3.58;;;;;;;14.74;30.14;100528.16;2117323;83;27923;-62
2022/04/18 10:13:10;;;;;;;4.85;3.72;;;;;;;14.74;30.14;100528.16;2116891;83;28640;-61
2022/04/18 10:16:17;;;;;;;7.05;3.85;;;;;;;14.92;29.89;100537.39;2116163;83;31098;-59
2022/04/18 10:19:38;;;;;;;3.77;3.15;;;;;;;14.89;29.25;100529.88;2116944;83;33006;-60
2022/04/18 10:23:25;;;;;;;5.00;3.70;;;;;;;15.00;29.25;100526.95;2116901;83;29348;-66
2022/04/18 10:27:04;;;;;;;7.62;3.65;;;;;;;15.10;28.81;100546.11;2117331;83;27948;-62
2022/04/18 10:30:10;;;;;;;5.92;3.92;;;;;;;14.86;28.61;100532.76;2085455;85;28710;-61
2022/04/18 10:33:18;;;;;;;;;;;;;;;14.65;28.50;100501.26;2064998;85;31044;-59
2022/04/18 10:36:32;;;;;;;3.87;3.25;;;;;;;14.68;28.08;100527.19;2072067;85;32987;-59
2022/04/18 10:39:39;;;;;;;5.10;3.65;;;;;;;14.63;28.83;100524.75;2045096;86;29381;-60
2022/04/18 10:42:50;;;;;;;7.55;4.37;;;;;;;14.70;28.77;100511.31;2057034;85;27986;-60
2022/04/18 10:46:20;;;;;;;4.87;3.80;;;;;;;14.71;28.86;100519.79;2057138;86;28674;-60
2022/04/18 10:49:35;;;;;;;5.72;4.20;;;;;;;14.52;28.46;100515.98;2056755;85;31288;-59
2022/04/18 10:52:44;;;;;;;11.38;4.65;;;;;;;14.51;29.29;100508.86;2056844;85;33013;-59
2022/04/18 10:55:59;;;;;;;5.00;3.80;;;;;;;14.58;29.28;100503.48;2023296;86;29437;-60
2022/04/18 10:59:10;;;;;;;4.58;2.95;;;;;;;14.72;28.49;100512.09;2057248;85;27963;-59
2022/04/18 11:02:45;;;;;;;6.00;4.17;;;;;;;14.73;29.06;100511.09;2056734;85;28765;-61
2022/04/18 11:05:53;;;;;;;6.28;4.17;;;;;;;14.68;28.63;100502.45;2056913;85;31141;-60
2022/04/18 11:09:13;;;;;;;7.53;4.67;;;;;;;14.56;28.24;100504.55;2057130;85;33031;-60
2022/04/18 11:12:28;;;;;;;6.50;3.90;;;;;;;14.32;28.92;100504.23;2057003;86;29556;-59
2022/04/18 11:15:38;;;;;;;4.87;3.85;;;;;;;14.28;28.98;100499.52;2056741;85;28051;-60
2022/04/18 11:18:42;;;;;;;5.92;4.33;;;;;;;14.34;28.85;100491.53;2056940;85;28810;-58
2022/04/18 11:22:04;;;;;;;5.20;3.87;;;;;;;14.31;28.32;100494.45;2057050;86;31687;-60
2022/04/18 11:25:12;;;;;;;6.95;3.45;;;;;;;14.20;28.57;100495.11;2056623;86;32866;-60
2022/04/18 11:28:17;;;;;;;6.55;3.87;;;;;;;14.01;28.78;100489.95;2057193;86;29324;-61
2022/04/18 11:31:22;;;;;;;7.55;5.28;;;;;;;14.05;29.24;100492.86;2058087;86;27903;-59
2022/04/18 11:34:30;;;;;;;5.33;4.00;;;;;;;14.19;29.05;100484.79;2057163;86;28657;-64
2022/04/18 11:37:43;;;;;;;6.35;3.87;;;;;;;14.20;28.68;100487.02;2063379;84;31042;-61
2022/04/18 11:40:50;;;;;;;9.10;3.87;;;;;;;14.11;28.63;100486.61;2065559;85;33428;-59
2022/04/18 11:43:59;;;;;;;7.08;3.87;;;;;;;14.01;28.89;100480.53;2065995;85;29379;-59
2022/04/18 11:47:13;;;;;;;5.20;3.77;;;;;;;13.95;29.06;100479.08;2065404;85;27885;-63
2022/04/18 11:50:22;;;;;;;7.65;4.20;;;;;;;13.93;28.67;100465.72;2065742;85;28667;-60
2022/04/18 11:53:33;;;;;;;9.80;6.45;;;;;;;13.94;28.61;100473.30;2065501;85;31246;-59
2022/04/18 11:56:40;;;;;;;10.58;7.97;;;;;;;13.88;29.17;100465.13;2065554;85;33195;-60
2022/04/18 11:59:51;;;;;;;6.03;4.37;;;;;;;13.91;28.37;100460.02;2065938;85;29334;-63
2022/04/18 12:09:49;;;;;;;6.20;4.05;;;;;;;14.20;28.30;100441.22;2065439;85;29767;-58
2022/04/18 12:12:54;;;;;;;6.15;4.00;;;;;;;14.17;28.21;100443.59;2066099;85;33022;-60
2022/04/18 12:16:03;;;;;;;6.08;4.37;;;;;;;14.13;28.07;100447.47;2065440;85;29346;-63
2022/04/18 12:19:15;;;;;;;6.85;3.70;;;;;;;14.08;28.48;100431.56;2064434;85;28078;-61
2022/04/18 12:22:26;;;;;;;9.33;3.85;;;;;;;14.03;28.78;100429.66;2064599;85;28654;-64
2022/04/18 12:25:32;;;;;;;5.30;4.08;;;;;;;14.02;28.92;100431.97;2050525;85;31045;-59
2022/04/18 12:28:38;;;;;;;6.78;3.60;;;;;;;14.04;29.00;100424.66;2064479;85;33043;-58
2022/04/18 12:31:44;;;;;;;4.20;3.37;;;;;;;14.10;28.55;100426.95;2064635;85;29332;-62
2022/04/18 12:34:48;;;;;;;6.33;4.60;;;;;;;14.09;27.56;100424.37;2064622;85;27940;-60
2022/04/18 12:37:52;;;;;;;5.25;3.80;;;;;;;13.99;27.45;100421.38;2079065;84;28797;-60
2022/04/18 12:41:00;;;;;;;9.68;4.28;;;;;;;14.06;27.89;100422.74;2116466;83;31109;-64
2022/04/18 12:44:14;;;;;;;5.25;3.87;;;;;;;14.11;27.73;100413.02;2117099;83;32974;-61
2022/04/18 12:47:32;;;;;;;6.22;3.55;;;;;;;14.28;28.70;100407.89;2117402;83;29323;-60
2022/04/18 12:50:40;;;;;;;6.53;3.52;;;;;;;14.37;28.84;100406.45;2117388;83;28030;-61
2022/04/18 12:53:53;;;;;;;5.72;4.22;;;;;;;14.39;28.23;100409.91;2117464;83;28700;-60
2022/04/18 12:57:03;;;;;;;6.03;4.10;;;;;;;14.31;27.73;100401.47;2116588;83;28070;-66
2022/04/18 13:00:20;;;;;;;7.03;3.25;;;;;;;14.20;28.42;100394.06;2117357;83;32961;-61
2022/04/18 13:03:28;;;;;;;4.60;3.45;;;;;;;14.26;28.67;100386.91;2117412;83;29341;-60
2022/04/18 13:06:33;;;;;;;4.60;3.52;;;;;;;14.41;29.22;100377.84;2118256;83;27874;-65
2022/04/18 13:09:44;;;;;;;5.65;3.45;;;;;;;14.61;29.49;100374.34;2118187;83;28626;-61
2022/04/18 13:12:59;;;;;;;4.47;3.42;;;;;;;14.68;28.17;100374.83;2117730;83;31416;-65
2022/04/18 13:16:25;;;;;;;5.00;3.02;;;;;;;14.59;27.67;100368.17;2118715;83;29296;-69
2022/04/18 13:19:36;;;;;;;8.83;3.47;;;;;;;14.58;28.12;100357.89;2118185;83;29347;-62
2022/04/18 13:22:43;;;;;;;4.37;3.40;;;;;;;14.65;28.55;100361.52;2117909;83;27941;-62
2022/04/18 13:25:52;;;;;;;5.45;3.58;;;;;;;14.71;28.29;100358.45;2118265;83;28640;-63
2022/04/18 13:29:04;;;;;;;3.58;2.83;;;;;;;14.73;28.63;100350.64;2117756;83;32122;-64
2022/04/18 13:32:14;;;;;;;5.03;3.47;;;;;;;14.84;28.68;100349.92;2118175;83;32972;-62
2022/04/18 13:35:21;;;;;;;4.92;3.50;;;;;;;14.91;27.91;100354.92;2117715;83;29379;-67
2022/04/18 13:38:29;;;;;;;5.65;3.60;;;;;;;14.86;28.14;100345.80;2115809;83;27694;-64
2022/04/18 13:41:33;;;;;;;4.87;3.70;;;;;;;14.76;27.93;100343.31;2089448;85;28712;-65
2022/04/18 13:44:38;;;;;;;13.43;7.17;;;;;;;14.64;27.92;100344.98;2115431;83;31019;-62
2022/04/18 13:47:47;;;;;;;9.55;6.03;;;;;;;14.52;28.40;100343.95;2115501;83;32953;-62
2022/04/18 13:50:53;;;;;;;5.10;3.72;;;;;;;14.37;28.61;100340.41;2115421;83;29328;-69
2022/04/18 13:53:59;;;;;;;5.20;3.92;;;;;;;14.28;28.78;100345.45;2115599;83;27870;-70
2022/04/18 13:57:10;;;;;;;5.70;4.62;;;;;;;14.31;28.85;100332.75;2115533;83;28718;-71
2022/04/18 14:00:17;;;;;;;9.78;5.45;;;;;;;14.32;28.77;100338.02;2114905;83;31191;-67
2022/04/18 14:03:23;;;;;;;4.90;3.58;;;;;;;14.30;28.74;100339.10;2115465;83;32965;-67
2022/04/18 14:06:27;;;;;;;5.45;3.60;;;;;;;14.21;28.47;100338.72;2115535;83;29367;-65
2022/04/18 14:09:35;;;;;;;7.73;3.87;;;;;;;14.09;28.49;100329.58;2095207;84;27989;-68
2022/04/18 14:12:41;;;;;;;5.35;3.92;;;;;;;13.94;27.98;100334.60;2115604;83;28657;-64
2022/04/18 14:22:37;;;;;;;5.95;4.28;;;;;;;13.75;29.19;100323.64;2115185;83;29816;-64
2022/04/18 14:25:44;;;;;;;6.30;3.62;;;;;;;13.84;29.47;100318.16;2115683;83;27958;-65
2022/04/18 14:28:52;;;;;;;5.12;4.15;;;;;;;13.94;29.16;100314.41;2115284;83;28662;-60
2022/04/18 14:31:59;;;;;;;4.70;3.60;;;;;;;13.87;28.84;100301.81;2115100;83;31030;-59
2022/04/18 14:35:08;;;;;;;6.00;4.08;;;;;;;13.80;29.27;100310.77;2114625;83;33025;-60
2022/04/18 14:38:15;;;;;;;6.87;3.25;;;;;;;13.76;29.09;100307.87;2114515;83;29324;-60
2022/04/18 14:41:23;;;;;;;4.85;3.92;;;;;;;13.80;29.48;100301.34;2089491;85;27878;-61
2022/04/18 14:44:27;;;;;;;6.87;3.50;;;;;;;13.80;28.59;100291.06;2115007;83;28666;-60
2022/04/18 14:47:31;;;;;;;4.67;3.37;;;;;;;13.80;28.81;100289.22;2089659;84;31025;-60
2022/04/18 14:50:43;;;;;;;4.53;3.58;;;;;;;13.79;28.94;100289.33;2094850;83;32975;-59
2022/04/18 14:53:53;;;;;;;6.90;4.10;;;;;;;13.70;29.19;100296.16;2089590;85;29368;-60
2022/04/18 14:56:58;;;;;;;5.80;4.10;;;;;;;13.63;28.92;100287.61;2114843;83;28027;-59
2022/04/18 15:00:08;;;;;;;6.08;4.40;;;;;;;13.50;28.66;100287.50;2115282;83;33858;-59
2022/04/18 15:03:19;;;;;;;4.67;3.87;;;;;;;13.45;29.29;100281.53;2114668;83;31206;-59
2022/04/18 15:06:26;;;;;;;7.65;3.58;;;;;;;13.46;29.30;100277.88;2115116;83;33559;-59
2022/04/18 15:09:30;;;;;;;6.45;3.60;;;;;;;13.49;29.18;100280.39;2114937;83;29501;-60